createdAt,value
2023-05-06T00:00:46.503Z,10.74
2023-05-06T00:03:40.484Z,10.69
2023-05-06T00:06:32.115Z,10.65
2023-05-06T00:09:12.764Z,10.71
2023-05-06T00:11:54.461Z,10.75
2023-05-06T00:14:37.698Z,10.74
2023-05-06T00:17:17.563Z,10.66
2023-05-06T00:20:10.072Z,10.57
2023-05-06T00:22:50.951Z,10.52
2023-05-06T00:25:25.846Z,10.47
2023-05-06T00:28:20.825Z,10.38
2023-05-06T00:31:03.120Z,10.28
2023-05-06T00:33:44.437Z,10.25
2023-05-06T00:36:26.145Z,10.22
2023-05-06T00:39:06.281Z,10.19
2023-05-06T00:41:47.098Z,10.19
2023-05-06T00:44:36.966Z,10.16
2023-05-06T00:47:18.151Z,10.15
2023-05-06T00:49:56.223Z,10.20
2023-05-06T00:52:41.717Z,10.19
2023-05-06T00:55:23.372Z,10.19
2023-05-06T00:58:05.120Z,10.13
2023-05-06T01:00:54.920Z,10.17
2023-05-06T01:03:32.652Z,10.17
2023-05-06T01:06:47.132Z,10.20
2023-05-06T01:09:41.106Z,10.13
2023-05-06T01:12:53.201Z,10.13
2023-05-06T01:15:51.176Z,10.13
2023-05-06T01:18:37.494Z,10.07
2023-05-06T01:21:25.501Z,10.06
2023-05-06T01:24:13.952Z,10.05
2023-05-06T01:27:04.231Z,10.12
2023-05-06T01:29:45.503Z,10.06
2023-05-06T01:32:53.267Z,9.95
2023-05-06T01:35:33.603Z,9.93
2023-05-06T01:38:30.573Z,9.92
2023-05-06T01:41:13.704Z,9.89
2023-05-06T01:44:08.307Z,9.86
2023-05-06T01:46:50.382Z,9.87
2023-05-06T01:49:29.251Z,9.84
2023-05-06T01:52:07.736Z,9.78
2023-05-06T01:54:45.981Z,9.75
2023-05-06T01:57:29.263Z,9.68
2023-05-06T02:00:10.503Z,9.67
2023-05-06T02:02:54.878Z,9.65
2023-05-06T02:05:35.603Z,9.65
2023-05-06T02:08:19.098Z,9.58
2023-05-06T02:11:03.117Z,9.58
2023-05-06T02:13:44.494Z,9.55
2023-05-06T02:16:22.843Z,9.52
2023-05-06T02:19:07.934Z,9.50
2023-05-06T02:21:46.936Z,9.48
2023-05-06T02:24:33.013Z,9.41
2023-05-06T02:27:19.057Z,9.43
2023-05-06T02:30:06.587Z,9.43
2023-05-06T02:32:47.856Z,9.43
2023-05-06T02:35:28.640Z,9.48
2023-05-06T02:38:18.477Z,9.47
2023-05-06T02:41:17.040Z,9.34
2023-05-06T02:44:06.381Z,9.37
2023-05-06T02:46:44.973Z,9.33
2023-05-06T02:49:20.757Z,9.33
2023-05-06T02:52:08.793Z,9.30
2023-05-06T02:54:54.054Z,9.24
2023-05-06T02:57:37.256Z,9.27
2023-05-06T03:00:18.074Z,9.27
2023-05-06T03:02:56.407Z,9.29
2023-05-06T03:05:51.029Z,9.31
2023-05-06T03:08:37.149Z,9.29
2023-05-06T03:11:20.095Z,9.21
2023-05-06T03:14:06.644Z,9.30
2023-05-06T03:16:47.751Z,9.29
2023-05-06T03:19:29.577Z,9.29
2023-05-06T03:22:05.276Z,9.19
2023-05-06T03:24:52.464Z,9.22
2023-05-06T03:27:38.525Z,9.20
2023-05-06T03:30:28.199Z,9.12
2023-05-06T03:33:18.111Z,9.16
2023-05-06T03:35:58.948Z,9.17
2023-05-06T03:38:42.378Z,9.22
2023-05-06T03:41:26.835Z,9.23
2023-05-06T03:44:04.950Z,9.20
2023-05-06T03:46:51.415Z,9.25
2023-05-06T03:49:32.244Z,9.23
2023-05-06T03:52:27.128Z,9.26
2023-05-06T03:55:09.905Z,9.46
2023-05-06T03:57:59.052Z,9.62
2023-05-06T04:00:44.823Z,9.59
2023-05-06T04:03:31.515Z,9.65
2023-05-06T04:06:13.379Z,9.68
2023-05-06T04:08:54.628Z,9.73
2023-05-06T04:11:40.786Z,9.86
2023-05-06T04:14:27.543Z,9.94
2023-05-06T04:17:14.785Z,10.07
2023-05-06T04:19:58.118Z,10.24
2023-05-06T04:22:41.397Z,10.32
2023-05-06T04:25:28.010Z,10.40
2023-05-06T04:28:08.390Z,10.51
2023-05-06T04:30:49.320Z,10.61
2023-05-06T04:33:32.885Z,10.65
2023-05-06T04:36:16.267Z,10.67
2023-05-06T04:39:17.642Z,10.84
2023-05-06T04:42:12.858Z,11.02
2023-05-06T04:44:57.017Z,11.07
2023-05-06T04:47:50.238Z,11.26
2023-05-06T04:50:49.735Z,11.36
2023-05-06T04:53:43.149Z,11.48
2023-05-06T04:56:21.195Z,11.55
2023-05-06T04:59:07.757Z,11.68
2023-05-06T05:01:49.037Z,11.88
2023-05-06T05:04:27.643Z,11.94
2023-05-06T05:07:02.766Z,11.97
2023-05-06T05:09:39.928Z,12.03
2023-05-06T05:12:19.922Z,12.16
2023-05-06T05:15:07.031Z,12.31
2023-05-06T05:17:45.691Z,12.41
2023-05-06T05:20:29.659Z,12.65
2023-05-06T05:23:18.996Z,12.82
2023-05-06T05:26:07.892Z,12.87
2023-05-06T05:28:59.066Z,12.87
2023-05-06T05:31:41.172Z,12.88
2023-05-06T05:34:24.859Z,12.74
2023-05-06T05:37:14.492Z,12.80
2023-05-06T05:40:04.336Z,12.91
2023-05-06T05:42:51.299Z,13.11
2023-05-06T05:45:48.483Z,13.32
2023-05-06T05:48:24.142Z,13.68
2023-05-06T05:51:29.149Z,13.98
2023-05-06T05:54:15.988Z,14.38
2023-05-06T05:57:04.317Z,14.95
2023-05-06T05:59:51.024Z,15.59
2023-05-06T06:02:38.068Z,16.24
2023-05-06T06:05:18.220Z,16.76
2023-05-06T06:08:01.137Z,17.30
2023-05-06T06:10:53.409Z,17.90
2023-05-06T06:13:47.804Z,18.62
2023-05-06T06:16:25.879Z,18.95
2023-05-06T06:19:15.393Z,18.86
2023-05-06T06:21:56.205Z,18.71
2023-05-06T06:24:46.192Z,18.91
2023-05-06T06:27:43.897Z,19.39
2023-05-06T06:30:19.630Z,19.55
2023-05-06T06:33:02.076Z,19.89
2023-05-06T06:35:46.017Z,20.21
2023-05-06T06:38:35.022Z,20.47
2023-05-06T06:41:11.129Z,20.45
2023-05-06T06:43:54.156Z,20.66
2023-05-06T06:46:45.984Z,20.69
2023-05-06T06:49:41.317Z,20.79
2023-05-06T06:52:27.443Z,20.25
2023-05-06T06:55:10.708Z,20.17
2023-05-06T06:58:03.606Z,20.55
2023-05-06T07:00:47.649Z,21.17
2023-05-06T07:03:31.201Z,21.22
2023-05-06T07:06:05.230Z,21.52
2023-05-06T07:08:40.227Z,21.43
2023-05-06T07:11:27.123Z,21.09
2023-05-06T07:14:02.444Z,20.87
2023-05-06T07:16:39.560Z,20.69
2023-05-06T07:19:20.208Z,20.64
2023-05-06T07:22:08.585Z,20.63
2023-05-06T07:24:46.841Z,21.06
2023-05-06T07:27:24.294Z,21.27
2023-05-06T07:30:23.401Z,21.59
2023-05-06T07:33:09.848Z,21.81
2023-05-06T07:35:50.799Z,22.02
2023-05-06T07:38:39.526Z,22.27
2023-05-06T07:41:33.691Z,22.54
2023-05-06T07:44:17.451Z,22.62
2023-05-06T07:47:10.925Z,22.74
2023-05-06T07:49:52.154Z,22.40
2023-05-06T07:52:32.858Z,22.45
2023-05-06T07:55:13.760Z,22.99
2023-05-06T07:58:13.372Z,23.54
2023-05-06T08:00:54.126Z,23.62
2023-05-06T08:03:44.242Z,23.62
2023-05-06T08:06:28.105Z,24.07
2023-05-06T08:09:22.281Z,24.13
2023-05-06T08:12:06.165Z,23.92
2023-05-06T08:14:38.944Z,23.92
2023-05-06T08:17:24.909Z,24.06
2023-05-06T08:20:08.673Z,24.21
2023-05-06T08:22:55.440Z,24.33
2023-05-06T08:25:39.055Z,24.09
2023-05-06T08:28:20.432Z,23.18
2023-05-06T08:31:10.564Z,23.49
2023-05-06T08:33:54.823Z,23.75
2023-05-06T08:36:38.069Z,23.91
2023-05-06T08:39:28.503Z,23.91
2023-05-06T08:42:16.119Z,24.05
2023-05-06T08:44:52.185Z,24.03
2023-05-06T08:47:39.587Z,24.52
2023-05-06T08:50:27.164Z,24.42
2023-05-06T08:53:09.087Z,24.58
2023-05-06T08:55:53.458Z,24.65
2023-05-06T08:58:36.073Z,24.80
2023-05-06T09:01:24.729Z,24.86
2023-05-06T09:04:05.468Z,25.09
2023-05-06T09:06:43.751Z,25.02
2023-05-06T09:09:19.612Z,24.99
2023-05-06T09:12:17.002Z,25.40
2023-05-06T09:14:59.682Z,25.27
2023-05-06T09:17:52.068Z,25.22
2023-05-06T09:20:38.865Z,25.02
2023-05-06T09:23:27.713Z,24.62
2023-05-06T09:26:11.970Z,24.46
2023-05-06T09:28:57.658Z,24.99
2023-05-06T09:31:30.844Z,25.15
2023-05-06T09:34:05.071Z,25.05
2023-05-06T09:36:45.921Z,25.01
2023-05-06T09:39:24.661Z,25.71
2023-05-06T09:42:14.151Z,26.07
2023-05-06T09:45:05.696Z,26.16
2023-05-06T09:47:53.153Z,26.44
2023-05-06T09:50:28.277Z,26.06
2023-05-06T09:53:14.499Z,25.56
2023-05-06T09:56:04.434Z,25.59
2023-05-06T09:58:51.572Z,25.23
2023-05-06T10:01:37.563Z,25.55
2023-05-06T10:04:26.812Z,25.43
2023-05-06T10:07:12.924Z,25.39
2023-05-06T10:10:01.172Z,25.45
2023-05-06T10:12:44.863Z,25.68
2023-05-06T10:15:33.982Z,26.28
2023-05-06T10:18:19.817Z,26.46
2023-05-06T10:20:58.641Z,26.53
2023-05-06T10:24:17.502Z,25.79
2023-05-06T10:27:04.721Z,26.46
2023-05-06T10:30:03.984Z,26.93
2023-05-06T10:32:52.924Z,26.89
2023-05-06T10:35:57.427Z,27.02
2023-05-06T10:38:55.081Z,26.29
2023-05-06T10:41:29.424Z,26.38
2023-05-06T10:44:07.083Z,26.03
2023-05-06T10:47:06.007Z,25.95
2023-05-06T10:49:50.091Z,26.18
2023-05-06T10:52:33.577Z,26.35
2023-05-06T10:55:39.118Z,26.85
2023-05-06T10:58:38.962Z,26.90
2023-05-06T11:01:25.295Z,27.67
2023-05-06T11:04:20.103Z,27.61
2023-05-06T11:07:13.553Z,27.13
2023-05-06T11:10:10.853Z,26.72
2023-05-06T11:13:02.200Z,26.61
2023-05-06T11:15:46.033Z,26.71
2023-05-06T11:18:53.685Z,26.74
2023-05-06T11:21:43.873Z,26.76
2023-05-06T11:24:37.140Z,26.53
2023-05-06T11:27:27.788Z,26.38
2023-05-06T11:30:08.646Z,26.15
2023-05-06T11:32:58.985Z,25.92
2023-05-06T11:35:54.080Z,25.91
2023-05-06T11:38:52.547Z,25.77
2023-05-06T11:41:39.724Z,25.53
2023-05-06T11:44:26.181Z,25.39
2023-05-06T11:47:20.950Z,25.06
2023-05-06T11:50:07.508Z,24.81
2023-05-06T11:52:54.452Z,24.67
2023-05-06T11:55:50.315Z,24.55
2023-05-06T11:58:40.752Z,24.41
2023-05-06T12:01:28.110Z,24.33
2023-05-06T12:04:17.391Z,24.37
2023-05-06T12:07:07.921Z,24.25
2023-05-06T12:09:50.130Z,24.00
2023-05-06T12:12:35.149Z,23.91
2023-05-06T12:15:13.785Z,23.64
2023-05-06T12:17:52.459Z,23.53
2023-05-06T12:20:35.317Z,23.38
2023-05-06T12:23:25.899Z,23.30
2023-05-06T12:26:12.780Z,23.26
2023-05-06T12:29:09.112Z,23.20
2023-05-06T12:31:50.127Z,23.15
2023-05-06T12:34:50.873Z,23.11
2023-05-06T12:37:59.800Z,23.05
2023-05-06T12:40:35.294Z,23.03
2023-05-06T12:43:16.497Z,23.02
2023-05-06T12:46:12.540Z,22.94
2023-05-06T12:49:09.012Z,22.95
2023-05-06T12:51:49.470Z,22.91
2023-05-06T12:54:42.172Z,22.83
2023-05-06T12:57:29.340Z,22.80
2023-05-06T13:00:21.264Z,22.88
2023-05-06T13:03:14.233Z,22.82
2023-05-06T13:05:54.195Z,22.78
2023-05-06T13:08:39.522Z,22.76
2023-05-06T13:11:28.595Z,22.61
2023-05-06T13:14:12.130Z,22.47
2023-05-06T13:17:00.451Z,22.13
2023-05-06T13:19:48.888Z,22.00
2023-05-06T13:22:53.318Z,21.87
2023-05-06T13:25:42.023Z,21.56
2023-05-06T13:28:32.150Z,21.53
2023-05-06T13:31:18.427Z,21.53
2023-05-06T13:34:07.321Z,21.38
2023-05-06T13:36:45.489Z,21.03
2023-05-06T13:39:34.893Z,21.13
2023-05-06T13:42:30.464Z,20.72
2023-05-06T13:45:20.498Z,20.64
2023-05-06T13:48:08.240Z,20.43
2023-05-06T13:50:52.574Z,20.15
2023-05-06T13:53:39.633Z,20.08
2023-05-06T13:56:29.971Z,19.92
2023-05-06T13:59:12.924Z,19.52
2023-05-06T14:01:56.805Z,19.49
2023-05-06T14:04:48.868Z,19.52
2023-05-06T14:07:37.992Z,19.49
2023-05-06T14:10:31.801Z,19.28
2023-05-06T14:13:17.975Z,19.03
2023-05-06T14:16:13.171Z,19.06
2023-05-06T14:18:52.150Z,18.86
2023-05-06T14:21:41.439Z,18.80
2023-05-06T14:24:23.116Z,18.90
2023-05-06T14:27:00.783Z,18.74
2023-05-06T14:29:53.060Z,18.46
2023-05-06T14:32:37.657Z,18.28
2023-05-06T14:35:28.029Z,18.00
2023-05-06T14:38:09.555Z,17.95
2023-05-06T14:40:46.705Z,17.68
2023-05-06T14:43:27.768Z,17.56
2023-05-06T14:46:13.374Z,17.49
2023-05-06T14:48:59.072Z,17.37
2023-05-06T14:51:32.534Z,17.29
2023-05-06T14:54:10.429Z,17.58
2023-05-06T14:56:53.688Z,17.42
2023-05-06T14:59:58.152Z,17.50
2023-05-06T15:02:35.688Z,17.41
2023-05-06T15:05:12.120Z,17.58
2023-05-06T15:07:55.841Z,17.54
2023-05-06T15:10:45.747Z,17.50
2023-05-06T15:13:32.042Z,17.86
2023-05-06T15:16:10.558Z,18.12
2023-05-06T15:18:48.986Z,18.31
2023-05-06T15:21:29.545Z,18.52
2023-05-06T15:24:13.653Z,18.57
2023-05-06T15:26:46.017Z,18.67
2023-05-06T15:29:30.517Z,18.94
2023-05-06T15:32:05.286Z,19.03
2023-05-06T15:34:47.617Z,19.03
2023-05-06T15:37:25.335Z,19.32
2023-05-06T15:40:17.519Z,20.12
2023-05-06T15:42:58.223Z,20.91
2023-05-06T15:45:44.881Z,21.28
2023-05-06T15:48:29.304Z,21.49
2023-05-06T15:51:09.666Z,21.66
2023-05-06T15:53:57.367Z,21.67
2023-05-06T15:56:46.935Z,21.61
2023-05-06T15:59:27.699Z,21.80
2023-05-06T16:05:13.052Z,22.82
2023-05-06T16:07:59.966Z,23.80
2023-05-06T16:10:47.397Z,25.08
2023-05-06T16:13:37.528Z,25.60
2023-05-06T16:16:18.652Z,25.43
2023-05-06T16:19:08.039Z,26.25
2023-05-06T16:21:51.126Z,26.81
2023-05-06T16:24:37.869Z,27.04
2023-05-06T16:27:19.770Z,27.66
2023-05-06T16:30:05.233Z,27.75
2023-05-06T16:32:51.777Z,27.81
2023-05-06T16:35:30.388Z,26.66
2023-05-06T16:38:19.540Z,25.05
2023-05-06T16:41:00.855Z,24.45
2023-05-06T16:43:39.097Z,24.05
2023-05-06T16:46:24.830Z,22.98
2023-05-06T16:49:13.949Z,22.09
2023-05-06T16:52:01.105Z,21.28
2023-05-06T16:54:42.934Z,20.83
2023-05-06T16:57:20.611Z,20.37
2023-05-06T17:00:00.505Z,20.05
2023-05-06T17:02:40.890Z,19.74
2023-05-06T17:05:22.344Z,19.57
2023-05-06T17:07:54.506Z,19.29
2023-05-06T17:10:43.670Z,19.13
2023-05-06T17:13:24.068Z,18.97
2023-05-06T17:16:07.101Z,18.76
2023-05-06T17:18:42.514Z,18.73
2023-05-06T17:21:25.039Z,18.58
2023-05-06T17:24:04.985Z,18.46
2023-05-06T17:26:41.069Z,18.29
2023-05-06T17:29:22.346Z,18.24
2023-05-06T17:32:08.691Z,18.17
2023-05-06T17:34:49.231Z,18.06
2023-05-06T17:37:31.669Z,17.94
2023-05-06T17:40:18.248Z,17.84
2023-05-06T17:43:04.217Z,17.73
2023-05-06T17:45:40.965Z,17.67
2023-05-06T17:51:56.201Z,17.55
2023-05-06T17:54:57.505Z,17.49
2023-05-06T18:01:41.952Z,17.38
2023-05-06T18:07:44.750Z,17.27
2023-05-06T18:10:45.057Z,17.32
2023-05-06T18:13:35.123Z,17.30
2023-05-06T18:16:43.560Z,17.26
2023-05-06T18:23:05.711Z,17.06
2023-05-06T18:25:44.394Z,17.09
2023-05-06T18:28:46.978Z,17.09
2023-05-06T18:44:26.234Z,16.85
2023-05-06T18:47:14.617Z,16.89
2023-05-06T18:53:14.419Z,16.96
2023-05-06T18:55:50.954Z,16.92
2023-05-06T18:58:44.072Z,16.87
2023-05-06T19:01:26.293Z,16.84
2023-05-06T19:04:01.613Z,16.81
2023-05-06T19:06:46.148Z,16.79
2023-05-06T19:09:27.284Z,16.78
2023-05-06T19:12:12.172Z,16.71
2023-05-06T19:14:52.634Z,16.73
2023-05-06T19:17:36.010Z,16.74
2023-05-06T19:20:14.689Z,16.64
2023-05-06T19:23:16.204Z,16.68
2023-05-06T19:25:46.107Z,16.63
2023-05-06T19:28:29.337Z,16.70
2023-05-06T19:31:34.912Z,16.72
2023-05-06T19:34:18.754Z,16.65
2023-05-06T19:37:10.176Z,16.64
2023-05-06T19:39:56.320Z,16.69
2023-05-06T19:42:40.679Z,16.67
2023-05-06T19:45:17.522Z,16.73
2023-05-06T19:47:56.612Z,16.78
2023-05-06T19:50:36.268Z,16.65
2023-05-06T19:53:20.184Z,16.58
2023-05-06T19:56:14.946Z,16.53
2023-05-06T19:59:04.148Z,16.53
2023-05-06T20:01:49.224Z,16.54
2023-05-06T20:04:35.937Z,16.49
2023-05-06T20:07:14.569Z,16.44
2023-05-06T20:10:00.309Z,16.40
2023-05-06T20:12:42.025Z,16.40
2023-05-06T20:15:25.266Z,16.37
2023-05-06T20:18:08.999Z,16.32
2023-05-06T20:20:56.452Z,16.34
2023-05-06T20:23:42.558Z,16.30
2023-05-06T20:26:26.110Z,16.31
2023-05-06T20:29:01.699Z,16.31
2023-05-06T20:31:46.170Z,16.27
2023-05-06T20:34:30.112Z,16.22
2023-05-06T20:37:10.495Z,16.12
2023-05-06T20:39:49.232Z,16.12
2023-05-06T20:42:27.825Z,16.14
2023-05-06T20:45:13.001Z,16.14
2023-05-06T20:47:58.369Z,16.04
2023-05-06T20:50:33.004Z,15.92
2023-05-06T20:53:20.112Z,16.01
2023-05-06T20:55:57.096Z,16.01
2023-05-06T20:58:33.183Z,15.93
2023-05-06T21:01:18.581Z,15.92
2023-05-06T21:03:59.200Z,15.93
2023-05-06T21:06:41.153Z,15.60
2023-05-06T21:09:25.862Z,15.57
2023-05-06T21:12:09.170Z,15.73
2023-05-06T21:14:59.084Z,15.76
2023-05-06T21:17:38.570Z,15.84
2023-05-06T21:20:23.019Z,15.88
2023-05-06T21:23:06.783Z,15.76
2023-05-06T21:26:02.829Z,15.77
2023-05-06T21:28:51.334Z,15.69
2023-05-06T21:31:41.322Z,15.76
2023-05-06T21:34:22.091Z,15.59
2023-05-06T21:37:05.390Z,15.62
2023-05-06T21:39:40.890Z,15.75
2023-05-06T21:42:21.571Z,15.50
2023-05-06T21:45:00.424Z,15.35
2023-05-06T21:47:41.038Z,15.29
2023-05-06T21:50:21.613Z,15.41
2023-05-06T21:53:12.335Z,15.30
2023-05-06T21:55:56.134Z,15.28
2023-05-06T21:58:33.915Z,15.07
2023-05-06T22:01:26.136Z,15.07
2023-05-06T22:04:13.139Z,14.86
2023-05-06T22:06:57.125Z,14.88
2023-05-06T22:09:40.211Z,14.82
2023-05-06T22:12:18.996Z,14.79
2023-05-06T22:15:05.085Z,14.67
2023-05-06T22:17:42.261Z,14.28
2023-05-06T22:20:22.546Z,14.26
2023-05-06T22:23:10.888Z,14.47
2023-05-06T22:25:52.591Z,14.29
2023-05-06T22:28:33.186Z,14.37
2023-05-06T22:31:14.624Z,14.19
2023-05-06T22:34:06.333Z,14.14
2023-05-06T22:36:44.643Z,14.18
2023-05-06T22:39:33.645Z,14.16
2023-05-06T22:42:17.197Z,14.20
2023-05-06T22:45:08.908Z,14.20
2023-05-06T22:47:56.177Z,14.19
2023-05-06T22:50:39.005Z,14.14
2023-05-06T22:53:24.998Z,14.09
2023-05-06T22:56:13.272Z,14.12
2023-05-06T22:58:59.171Z,14.14
2023-05-06T23:01:51.576Z,14.09
2023-05-06T23:04:31.840Z,14.04
2023-05-06T23:07:19.083Z,14.04
2023-05-06T23:09:51.174Z,14.03
2023-05-06T23:12:40.379Z,14.08
2023-05-06T23:15:23.106Z,14.12
2023-05-06T23:18:06.984Z,14.06
2023-05-06T23:20:53.052Z,14.03
2023-05-06T23:23:34.271Z,14.11
2023-05-06T23:26:17.481Z,14.16
2023-05-06T23:29:05.105Z,14.15
2023-05-06T23:31:47.669Z,14.11
2023-05-06T23:34:28.521Z,14.26
2023-05-06T23:37:20.395Z,14.31
2023-05-06T23:39:58.709Z,14.26
2023-05-06T23:42:40.106Z,14.27
2023-05-06T23:45:15.061Z,14.27
2023-05-06T23:48:06.340Z,14.22
2023-05-06T23:50:44.643Z,14.20
2023-05-06T23:53:28.905Z,14.24
2023-05-06T23:56:12.674Z,14.25
2023-05-06T23:58:55.771Z,14.28
